createdAt,value
2017-06-04T00:00:18.782Z,94.92
2017-06-04T00:00:59.687Z,94.68
2017-06-04T00:01:40.589Z,94.59
2017-06-04T00:02:21.480Z,94.97
2017-06-04T00:03:02.391Z,95.84
2017-06-04T00:03:43.395Z,95.26
2017-06-04T00:04:24.290Z,95.45
2017-06-04T00:05:05.188Z,95.45
2017-06-04T00:05:46.146Z,95.55
2017-06-04T00:06:27.046Z,96.03
2017-06-04T00:07:07.959Z,96.22
2017-06-04T00:07:48.851Z,96.12
2017-06-04T00:08:29.736Z,96.42
2017-06-04T00:09:10.631Z,96.42
2017-06-04T00:09:51.586Z,95.45
2017-06-04T00:10:32.482Z,95.65
2017-06-04T00:11:13.383Z,95.65
2017-06-04T00:11:54.266Z,95.84
2017-06-04T00:12:35.161Z,95.94
2017-06-04T00:13:16.060Z,95.07
2017-06-04T00:13:56.947Z,96.12
2017-06-04T00:14:37.858Z,96.7
2017-06-04T00:15:18.764Z,97.28
2017-06-04T00:15:59.661Z,98.05
2017-06-04T00:16:40.551Z,97.96
2017-06-04T00:17:21.442Z,98.34
2017-06-04T00:18:02.351Z,98.39
2017-06-04T00:18:43.246Z,98
2017-06-04T00:19:24.150Z,98.68
2017-06-04T00:20:05.044Z,98.44
2017-06-04T00:20:45.990Z,97.86
2017-06-04T00:21:26.895Z,97.91
2017-06-04T00:22:07.787Z,96.99
2017-06-04T00:22:48.696Z,96.7
2017-06-04T00:23:29.606Z,97.47
2017-06-04T00:24:10.507Z,97.67
2017-06-04T00:24:51.400Z,97.67
2017-06-04T00:25:32.306Z,96.7
2017-06-04T00:26:13.200Z,96.61
2017-06-04T00:26:54.097Z,96.51
2017-06-04T00:27:35.006Z,96.51
2017-06-04T00:28:15.918Z,96.12
2017-06-04T00:28:56.802Z,96.99
2017-06-04T00:29:37.703Z,96.94
2017-06-04T00:30:18.609Z,97.52
2017-06-04T00:30:59.498Z,97.42
2017-06-04T00:31:40.405Z,97.14
2017-06-04T00:32:21.300Z,98.1
2017-06-04T00:33:02.195Z,97.62
2017-06-04T00:33:43.086Z,97.42
2017-06-04T00:34:23.969Z,97.62
2017-06-04T00:35:04.875Z,98
2017-06-04T00:35:45.773Z,97.62
2017-06-04T00:36:26.666Z,97.62
2017-06-04T00:37:07.576Z,97.91
2017-06-04T00:37:48.486Z,97.42
2017-06-04T00:38:29.388Z,97.91
2017-06-04T00:39:10.296Z,97.14
2017-06-04T00:39:51.175Z,96.56
2017-06-04T00:40:32.074Z,97.42
2017-06-04T00:41:12.982Z,97.14
2017-06-04T00:41:53.891Z,97.42
2017-06-04T00:42:34.775Z,98.1
2017-06-04T00:43:15.679Z,98.49
2017-06-04T00:43:56.576Z,99.26
2017-06-04T00:44:37.524Z,98.58
2017-06-04T00:45:18.421Z,98.77
2017-06-04T00:45:59.314Z,98.96
2017-06-04T00:46:40.205Z,98.58
2017-06-04T00:47:21.104Z,98.72
2017-06-04T00:48:01.993Z,98.58
2017-06-04T00:48:42.886Z,99.01
2017-06-04T00:49:23.792Z,99.21
2017-06-04T00:50:04.678Z,98.82
2017-06-04T00:50:45.577Z,99.49
2017-06-04T00:51:26.540Z,99.49
2017-06-04T00:52:07.451Z,99.99
2017-06-04T00:52:48.351Z,99.78
2017-06-04T00:53:29.247Z,99.4
2017-06-04T00:54:10.139Z,99.99
2017-06-04T00:54:51.042Z,99.3
2017-06-04T00:55:31.931Z,99.99
2017-06-04T00:56:12.827Z,99.99
2017-06-04T00:56:53.720Z,99.99
2017-06-04T00:57:34.617Z,99.99
2017-06-04T00:58:15.510Z,99.99
2017-06-04T00:58:56.407Z,99.99
2017-06-04T00:59:37.316Z,99.99
2017-06-04T01:00:18.199Z,99.99
2017-06-04T01:00:59.091Z,99.98
2017-06-04T01:01:39.998Z,99.99
2017-06-04T01:02:20.900Z,99.99
2017-06-04T01:03:01.798Z,99.99
2017-06-04T01:03:42.708Z,99.99
2017-06-04T01:04:23.614Z,99.99
2017-06-04T01:05:04.514Z,99.99
2017-06-04T01:05:45.403Z,99.99
2017-06-04T01:06:26.308Z,99.99
2017-06-04T01:07:07.204Z,99.99
2017-06-04T01:07:48.097Z,99.99
2017-06-04T01:08:28.992Z,99.99
2017-06-04T01:09:09.894Z,99.99
2017-06-04T01:09:50.785Z,99.99
2017-06-04T01:10:31.682Z,99.99
2017-06-04T01:11:12.576Z,99.99
2017-06-04T01:11:53.480Z,99.99
2017-06-04T01:12:34.372Z,99.99
2017-06-04T01:13:15.278Z,99.88
2017-06-04T01:13:56.175Z,99.99
2017-06-04T01:14:37.071Z,99.99
2017-06-04T01:15:17.960Z,99.99
2017-06-04T01:15:58.865Z,99.88
2017-06-04T01:16:39.808Z,99.68
2017-06-04T01:17:20.663Z,99.3
2017-06-04T01:18:01.583Z,99.59
2017-06-04T01:18:42.477Z,99.59
2017-06-04T01:19:23.374Z,99.4
2017-06-04T01:20:04.278Z,99.11
2017-06-04T01:20:45.177Z,99.01
2017-06-04T01:21:26.065Z,99.49
2017-06-04T01:22:06.991Z,99.88
2017-06-04T01:22:47.880Z,99.78
2017-06-04T01:23:28.771Z,99.99
2017-06-04T01:24:09.664Z,99.88
2017-06-04T01:24:50.563Z,99.99
2017-06-04T01:25:31.459Z,99.99
2017-06-04T01:26:12.354Z,99.99
2017-06-04T01:26:53.241Z,99.99
2017-06-04T01:27:34.149Z,99.99
2017-06-04T01:28:15.037Z,99.78
2017-06-04T01:28:55.954Z,99.99
2017-06-04T01:29:36.839Z,99.99
2017-06-04T01:30:17.750Z,99.98
2017-06-04T01:30:58.649Z,99.99
2017-06-04T01:31:39.551Z,99.99
2017-06-04T01:32:20.458Z,99.99
2017-06-04T01:33:01.335Z,99.99
2017-06-04T01:33:42.229Z,99.99
2017-06-04T01:34:23.138Z,99.99
2017-06-04T01:35:04.031Z,99.99
2017-06-04T01:35:44.921Z,99.99
2017-06-04T01:36:25.830Z,99.99
2017-06-04T01:37:06.742Z,99.99
2017-06-04T01:37:47.633Z,99.99
2017-06-04T01:38:28.524Z,99.99
2017-06-04T01:39:09.418Z,99.99
2017-06-04T01:39:50.317Z,99.99
2017-06-04T01:40:31.194Z,99.99
2017-06-04T01:41:12.088Z,99.99
2017-06-04T01:41:52.984Z,99.99
2017-06-04T01:42:33.874Z,99.99
2017-06-04T01:43:14.775Z,99.99
2017-06-04T01:43:55.679Z,99.99
2017-06-04T01:44:36.583Z,99.99
2017-06-04T01:45:17.474Z,99.99
2017-06-04T01:45:58.367Z,99.99
2017-06-04T01:46:39.288Z,99.99
2017-06-04T01:47:20.186Z,99.99
2017-06-04T01:48:01.077Z,99.99
2017-06-04T01:48:41.973Z,99.99
2017-06-04T01:49:22.849Z,99.99
2017-06-04T01:50:03.737Z,99.99
2017-06-04T01:50:44.653Z,99.99
2017-06-04T01:51:25.537Z,99.99
2017-06-04T01:52:06.420Z,99.99
2017-06-04T01:52:47.324Z,99.99
2017-06-04T01:53:28.241Z,99.99
2017-06-04T01:54:09.131Z,99.99
2017-06-04T01:54:50.030Z,99.99
2017-06-04T01:55:30.921Z,99.99
2017-06-04T01:56:11.829Z,99.99
2017-06-04T01:56:52.695Z,99.99
2017-06-04T01:57:33.581Z,99.99
2017-06-04T01:58:14.469Z,99.99
2017-06-04T01:58:55.369Z,99.99
2017-06-04T01:59:36.254Z,99.99
2017-06-04T02:00:17.154Z,99.99
2017-06-04T02:00:58.042Z,99.99
2017-06-04T02:01:38.960Z,99.99
2017-06-04T02:02:19.862Z,99.99
2017-06-04T02:03:00.766Z,99.99
2017-06-04T02:03:41.664Z,99.99
2017-06-04T02:04:22.559Z,99.99
2017-06-04T02:05:03.443Z,99.99
2017-06-04T02:05:44.357Z,99.99
2017-06-04T02:06:25.240Z,99.99
2017-06-04T02:07:06.129Z,99.98
2017-06-04T02:07:47.023Z,99.88
2017-06-04T02:08:27.907Z,99.99
2017-06-04T02:09:08.795Z,99.21
2017-06-04T02:09:49.694Z,99.68
2017-06-04T02:10:30.580Z,99.06
2017-06-04T02:11:11.472Z,99.54
2017-06-04T02:11:52.364Z,99.26
2017-06-04T02:12:33.249Z,99.54
2017-06-04T02:13:14.145Z,99.35
2017-06-04T02:13:55.047Z,99.35
2017-06-04T02:14:35.934Z,99.44
2017-06-04T02:15:16.857Z,98.87
2017-06-04T02:15:57.750Z,99.64
2017-06-04T02:16:38.638Z,99.06
2017-06-04T02:17:19.540Z,99.06
2017-06-04T02:18:00.421Z,98.39
2017-06-04T02:18:41.315Z,98.77
2017-06-04T02:19:22.215Z,98.68
2017-06-04T02:20:03.101Z,98.77
2017-06-04T02:20:43.989Z,98.77
2017-06-04T02:21:24.895Z,98.87
2017-06-04T02:22:05.778Z,99.16
2017-06-04T02:22:46.664Z,99.54
2017-06-04T02:23:27.559Z,99.16
2017-06-04T02:24:08.447Z,99.06
2017-06-04T02:24:49.321Z,99.3
2017-06-04T02:25:30.223Z,99.98
2017-06-04T02:26:11.128Z,99.49
2017-06-04T02:26:52.026Z,99.99
2017-06-04T02:27:32.932Z,99.99
2017-06-04T02:28:13.804Z,99.99
2017-06-04T02:28:54.679Z,99.99
2017-06-04T02:29:35.579Z,99.99
2017-06-04T02:30:16.477Z,99.99
2017-06-04T02:30:57.379Z,99.99
2017-06-04T02:31:38.269Z,99.98
2017-06-04T02:32:19.183Z,99.99
2017-06-04T02:33:00.086Z,99.99
2017-06-04T02:33:40.973Z,99.99
2017-06-04T02:34:21.874Z,99.99
2017-06-04T02:35:02.767Z,99.99
2017-06-04T02:35:43.660Z,99.99
2017-06-04T02:36:24.574Z,99.99
2017-06-04T02:37:05.466Z,99.99
2017-06-04T02:37:46.365Z,99.99
2017-06-04T02:38:27.281Z,99.99
2017-06-04T02:39:08.167Z,99.99
2017-06-04T02:39:49.060Z,99.99
2017-06-04T02:40:29.958Z,99.99
2017-06-04T02:41:10.849Z,99.99
2017-06-04T02:41:51.755Z,99.99
2017-06-04T02:42:32.644Z,99.99
2017-06-04T02:43:13.560Z,99.99
2017-06-04T02:43:54.450Z,99.99
2017-06-04T02:44:35.378Z,99.99
2017-06-04T02:45:16.271Z,99.99
2017-06-04T02:45:57.180Z,99.99
2017-06-04T02:47:35.581Z,99.99
2017-06-04T02:48:16.473Z,99.99
2017-06-04T02:48:57.361Z,99.99
2017-06-04T02:49:38.251Z,99.99
2017-06-04T02:50:19.149Z,99.99
2017-06-04T02:51:00.033Z,99.99
2017-06-04T02:51:40.936Z,99.99
2017-06-04T02:52:21.810Z,99.99
2017-06-04T02:53:02.734Z,99.99
2017-06-04T02:53:43.619Z,99.99
2017-06-04T02:54:24.505Z,99.99
2017-06-04T02:55:05.392Z,99.99
2017-06-04T02:55:46.278Z,99.99
2017-06-04T02:56:27.183Z,99.99
2017-06-04T02:57:08.061Z,99.99
2017-06-04T02:57:48.947Z,99.99
2017-06-04T02:58:29.844Z,99.99
2017-06-04T02:59:10.736Z,99.99
2017-06-04T02:59:51.641Z,99.99
2017-06-04T03:00:32.526Z,99.99
2017-06-04T03:01:13.413Z,99.99
2017-06-04T03:01:54.473Z,99.99
2017-06-04T03:02:35.347Z,99.99
2017-06-04T03:03:16.246Z,99.99
2017-06-04T03:03:57.146Z,99.99
2017-06-04T03:04:38.037Z,99.99
2017-06-04T03:05:18.935Z,99.99
2017-06-04T03:05:59.825Z,99.99
2017-06-04T03:06:40.716Z,99.99
2017-06-04T03:07:21.612Z,99.99
2017-06-04T03:08:02.505Z,99.99
2017-06-04T03:08:43.399Z,99.99
2017-06-04T03:09:24.301Z,99.99
2017-06-04T03:10:05.187Z,99.99
2017-06-04T03:10:46.087Z,99.99
2017-06-04T03:11:26.996Z,99.99
2017-06-04T03:12:07.920Z,99.99
2017-06-04T03:12:48.805Z,99.99
2017-06-04T03:13:29.697Z,99.99
2017-06-04T03:14:10.591Z,99.99
2017-06-04T03:14:51.471Z,99.99
2017-06-04T03:15:32.365Z,99.99
2017-06-04T03:16:13.254Z,99.99
2017-06-04T03:16:54.147Z,99.99
2017-06-04T03:17:35.029Z,99.99
2017-06-04T03:18:15.924Z,99.99
2017-06-04T03:18:56.819Z,99.99
2017-06-04T03:19:37.719Z,99.99
2017-06-04T03:20:18.614Z,99.99
2017-06-04T03:20:59.524Z,99.99
2017-06-04T03:21:40.418Z,99.99
2017-06-04T03:22:21.320Z,99.99
2017-06-04T03:23:02.268Z,99.99
2017-06-04T03:23:43.160Z,99.99
2017-06-04T03:24:24.058Z,99.99
2017-06-04T03:25:05.032Z,99.99
2017-06-04T03:25:45.931Z,99.99
2017-06-04T03:26:26.859Z,99.88
2017-06-04T03:27:07.752Z,99.99
2017-06-04T03:27:48.653Z,99.99
2017-06-04T03:28:29.547Z,99.99
2017-06-04T03:29:10.440Z,99.99
2017-06-04T03:29:51.338Z,99.99
2017-06-04T03:30:32.235Z,99.99
2017-06-04T03:31:13.133Z,99.99
2017-06-04T03:31:54.032Z,99.99
2017-06-04T03:32:34.915Z,99.99
2017-06-04T03:33:15.820Z,99.99
2017-06-04T03:33:56.704Z,99.99
2017-06-04T03:34:37.598Z,99.99
2017-06-04T03:35:18.516Z,99.99
2017-06-04T03:35:59.383Z,99.99
2017-06-04T03:36:40.272Z,99.99
2017-06-04T03:37:21.172Z,99.99
2017-06-04T03:38:02.071Z,99.99
2017-06-04T03:38:42.967Z,99.99
2017-06-04T03:39:23.870Z,99.99
2017-06-04T03:40:04.741Z,99.99
2017-06-04T03:40:45.652Z,99.99
2017-06-04T03:41:26.539Z,99.99
2017-06-04T03:42:07.430Z,99.99
2017-06-04T03:42:48.333Z,99.99
2017-06-04T03:43:29.231Z,99.99
2017-06-04T03:44:10.142Z,99.99
2017-06-04T03:44:51.043Z,99.99
2017-06-04T03:45:31.936Z,99.99
2017-06-04T03:46:12.829Z,99.99
2017-06-04T03:46:53.725Z,99.64
2017-06-04T03:47:34.617Z,99.54
2017-06-04T03:48:15.518Z,99.99
2017-06-04T03:48:56.428Z,99.93
2017-06-04T03:49:37.333Z,99.83
2017-06-04T03:50:18.229Z,99.93
2017-06-04T03:50:59.133Z,99.99
2017-06-04T03:51:40.035Z,99.99
2017-06-04T03:52:20.924Z,99.93
2017-06-04T03:53:01.834Z,99.99
2017-06-04T03:53:42.721Z,99.99
2017-06-04T03:54:23.626Z,99.93
2017-06-04T03:55:04.527Z,99.26
2017-06-04T03:55:45.415Z,99.35
2017-06-04T03:56:26.312Z,99.99
2017-06-04T03:57:07.210Z,99.93
2017-06-04T03:57:48.107Z,99.26
2017-06-04T03:58:29.001Z,99.16
2017-06-04T03:59:09.910Z,99.54
2017-06-04T03:59:50.811Z,99.16
2017-06-04T04:00:31.704Z,99.26
2017-06-04T04:01:12.606Z,99.06
2017-06-04T04:01:53.506Z,99.06
2017-06-04T04:02:34.403Z,99.99
2017-06-04T04:03:15.300Z,99.99
2017-06-04T04:03:56.195Z,99.99
2017-06-04T04:04:37.081Z,99.99
2017-06-04T04:05:17.988Z,99.99
2017-06-04T04:05:58.881Z,99.99
2017-06-04T04:06:39.781Z,99.35
2017-06-04T04:07:20.670Z,99.35
2017-06-04T04:08:01.554Z,99.21
2017-06-04T04:08:42.453Z,99.16
2017-06-04T04:09:23.340Z,99.35
2017-06-04T04:10:04.228Z,99.06
2017-06-04T04:10:45.158Z,98.96
2017-06-04T04:11:26.045Z,99.44
2017-06-04T04:12:06.941Z,99.26
2017-06-04T04:12:47.835Z,98.96
2017-06-04T04:13:28.730Z,98.87
2017-06-04T04:14:09.617Z,99.06
2017-06-04T04:14:50.511Z,98.82
2017-06-04T04:15:31.405Z,98.77
2017-06-04T04:16:12.306Z,98.87
2017-06-04T04:16:53.220Z,99.26
2017-06-04T04:17:34.111Z,99.35
2017-06-04T04:18:15.003Z,99.06
2017-06-04T04:18:55.892Z,98.87
2017-06-04T04:19:36.806Z,99.26
2017-06-04T04:20:17.680Z,99.54
2017-06-04T04:20:58.576Z,99.99
2017-06-04T04:21:39.468Z,99.99
2017-06-04T04:22:20.370Z,99.99
2017-06-04T04:23:01.257Z,99.99
2017-06-04T04:23:42.182Z,99.99
2017-06-04T04:24:23.090Z,99.99
2017-06-04T04:25:03.989Z,99.99
2017-06-04T04:25:44.891Z,99.99
2017-06-04T04:26:25.778Z,99.99
2017-06-04T04:27:06.753Z,99.83
2017-06-04T04:27:47.642Z,99.54
2017-06-04T04:28:28.533Z,99.93
2017-06-04T04:29:09.423Z,99.99
2017-06-04T04:29:50.324Z,99.99
2017-06-04T04:30:31.214Z,99.99
2017-06-04T04:31:12.143Z,99.99
2017-06-04T04:31:53.025Z,99.99
2017-06-04T04:32:33.931Z,99.99
2017-06-04T04:33:14.814Z,99.35
2017-06-04T04:33:55.712Z,99.26
2017-06-04T04:34:36.605Z,99.16
2017-06-04T04:35:17.492Z,98.96
2017-06-04T04:35:58.393Z,99.83
2017-06-04T04:36:39.301Z,99.35
2017-06-04T04:37:20.189Z,99.06
2017-06-04T04:38:01.085Z,98.92
2017-06-04T04:38:41.984Z,99.44
2017-06-04T04:39:22.880Z,99.88
2017-06-04T04:40:03.785Z,99.99
2017-06-04T04:40:44.666Z,99.99
2017-06-04T04:41:25.552Z,99.99
2017-06-04T04:42:06.452Z,99.99
2017-06-04T04:42:47.343Z,99.99
2017-06-04T04:43:28.225Z,99.99
2017-06-04T04:44:09.128Z,99.99
2017-06-04T04:44:50.012Z,99.99
2017-06-04T04:45:30.895Z,99.99
2017-06-04T04:46:11.825Z,99.83
2017-06-04T04:46:52.716Z,99.59
2017-06-04T04:47:33.639Z,99.49
2017-06-04T04:48:14.517Z,99.35
2017-06-04T04:48:55.420Z,99.99
2017-06-04T04:49:36.315Z,99.99
2017-06-04T04:50:17.195Z,99.69
2017-06-04T04:50:58.091Z,99.93
2017-06-04T04:51:38.998Z,99.3
2017-06-04T04:52:19.896Z,99.01
2017-06-04T04:53:00.794Z,98.72
2017-06-04T04:53:41.681Z,98.82
2017-06-04T04:54:22.580Z,98.39
2017-06-04T04:55:03.474Z,98.29
2017-06-04T04:55:44.358Z,99.35
2017-06-04T04:56:25.301Z,99.26
2017-06-04T04:57:06.177Z,99.35
2017-06-04T04:57:47.079Z,99.26
2017-06-04T04:58:27.982Z,99.06
2017-06-04T04:59:08.871Z,99.35
2017-06-04T04:59:49.767Z,99.73
2017-06-04T05:00:30.664Z,99.83
2017-06-04T05:01:11.543Z,99.93
2017-06-04T05:01:52.451Z,99.64
2017-06-04T05:02:33.337Z,99.83
2017-06-04T05:03:14.280Z,99.83
2017-06-04T05:03:55.162Z,99.99
2017-06-04T05:04:36.072Z,99.83
2017-06-04T05:05:16.984Z,99.99
2017-06-04T05:05:57.833Z,99.99
2017-06-04T05:06:38.723Z,99.99
2017-06-04T05:07:19.612Z,99.99
2017-06-04T05:08:00.506Z,99.99
2017-06-04T05:08:41.409Z,99.99
2017-06-04T05:09:22.305Z,99.99
2017-06-04T05:10:03.205Z,99.99
2017-06-04T05:10:44.139Z,99.99
2017-06-04T05:11:25.026Z,99.99
2017-06-04T05:12:05.938Z,99.83
2017-06-04T05:12:46.839Z,99.99
2017-06-04T05:13:27.734Z,99.99
2017-06-04T05:14:08.632Z,99.99
2017-06-04T05:14:49.520Z,99.99
2017-06-04T05:15:30.496Z,99.99
2017-06-04T05:16:11.394Z,99.99
2017-06-04T05:16:52.297Z,99.99
2017-06-04T05:17:33.182Z,99.99
2017-06-04T05:18:14.084Z,99.99
2017-06-04T05:18:54.969Z,99.99
2017-06-04T05:19:35.861Z,99.99
2017-06-04T05:20:16.772Z,99.99
2017-06-04T05:20:57.658Z,99.99
2017-06-04T05:21:38.539Z,99.99
2017-06-04T05:22:19.439Z,99.99
2017-06-04T05:23:00.344Z,99.99
2017-06-04T05:23:41.318Z,99.99
2017-06-04T05:24:22.217Z,99.99
2017-06-04T05:25:03.104Z,99.99
2017-06-04T05:25:43.994Z,99.99
2017-06-04T05:26:24.877Z,99.99
2017-06-04T05:27:05.772Z,99.99
2017-06-04T05:27:46.669Z,99.99
2017-06-04T05:28:27.574Z,99.99
2017-06-04T05:29:08.457Z,99.99
2017-06-04T05:29:49.364Z,99.99
2017-06-04T05:30:30.244Z,99.99
2017-06-04T05:31:11.133Z,99.99
2017-06-04T05:31:52.032Z,99.99
2017-06-04T05:32:32.919Z,99.99
2017-06-04T05:33:13.804Z,99.99
2017-06-04T05:33:54.693Z,99.99
2017-06-04T05:34:35.596Z,99.99
2017-06-04T05:35:16.476Z,99.93
2017-06-04T05:35:57.375Z,99.99
2017-06-04T05:36:38.271Z,99.99
2017-06-04T05:37:19.163Z,99.99
2017-06-04T05:38:00.070Z,99.99
2017-06-04T05:38:40.966Z,99.99
2017-06-04T05:39:21.856Z,99.93
2017-06-04T05:40:02.750Z,99.93
2017-06-04T05:40:43.650Z,99.99
2017-06-04T05:41:24.543Z,99.88
2017-06-04T05:42:05.431Z,99.88
2017-06-04T05:42:46.315Z,99.93
2017-06-04T05:43:27.209Z,99.59
2017-06-04T05:44:08.107Z,99.78
2017-06-04T05:44:48.998Z,99.99
2017-06-04T05:45:29.894Z,99.88
2017-06-04T05:46:10.783Z,99.88
2017-06-04T05:46:51.675Z,99.35
2017-06-04T05:47:32.572Z,99.73
2017-06-04T05:48:13.472Z,99.99
2017-06-04T05:48:54.362Z,99.99
2017-06-04T05:49:35.291Z,99.99
2017-06-04T05:50:16.176Z,99.99
2017-06-04T05:50:57.085Z,99.99
2017-06-04T05:52:36.508Z,99.99
2017-06-04T05:53:17.373Z,99.99
2017-06-04T05:53:58.262Z,99.99
2017-06-04T05:54:39.160Z,99.99
2017-06-04T05:55:20.051Z,99.99
2017-06-04T05:56:00.957Z,99.99
2017-06-04T05:56:41.850Z,99.99
2017-06-04T05:57:22.753Z,99.99
2017-06-04T05:58:03.637Z,99.99
2017-06-04T05:58:44.536Z,99.99
2017-06-04T05:59:25.444Z,99.99
2017-06-04T06:00:06.310Z,99.99
2017-06-04T06:00:47.216Z,99.99
2017-06-04T06:01:28.120Z,99.99
2017-06-04T06:02:09.017Z,99.99
2017-06-04T06:02:49.931Z,99.99
2017-06-04T06:03:30.809Z,99.99
2017-06-04T06:04:11.706Z,99.99
2017-06-04T06:04:52.601Z,99.99
2017-06-04T06:05:33.491Z,99.99
2017-06-04T06:06:14.397Z,99.99
2017-06-04T06:06:55.295Z,99.99
2017-06-04T06:07:36.194Z,99.99
2017-06-04T06:08:17.060Z,99.99
2017-06-04T06:08:57.946Z,99.99
2017-06-04T06:09:38.875Z,99.99
2017-06-04T06:10:19.747Z,99.99
2017-06-04T06:11:00.635Z,99.99
2017-06-04T06:11:41.529Z,99.99
2017-06-04T06:12:22.417Z,99.99
2017-06-04T06:13:03.393Z,99.99
2017-06-04T06:13:44.231Z,99.99
2017-06-04T06:14:25.114Z,99.99
2017-06-04T06:15:06.000Z,99.99
2017-06-04T06:15:46.904Z,99.99
2017-06-04T06:16:27.794Z,99.99
2017-06-04T06:17:08.690Z,99.99
2017-06-04T06:17:49.597Z,99.99
2017-06-04T06:18:30.490Z,99.99
2017-06-04T06:19:11.372Z,99.99
2017-06-04T06:19:52.292Z,99.99
2017-06-04T06:20:33.157Z,99.99
2017-06-04T06:21:14.048Z,99.99
2017-06-04T06:21:54.992Z,99.99
2017-06-04T06:22:35.869Z,99.99
2017-06-04T06:23:16.770Z,99.99
2017-06-04T06:23:57.664Z,99.99
2017-06-04T06:24:38.567Z,99.99
2017-06-04T06:25:19.470Z,99.99
2017-06-04T06:26:00.364Z,99.99
2017-06-04T06:26:41.267Z,99.99
2017-06-04T06:27:22.154Z,99.99
2017-06-04T06:28:03.070Z,99.99
2017-06-04T06:28:43.965Z,99.99
2017-06-04T06:29:24.861Z,99.99
2017-06-04T06:30:05.744Z,99.99
2017-06-04T06:30:46.646Z,99.99
2017-06-04T06:31:27.534Z,99.99
2017-06-04T06:32:08.435Z,99.99
2017-06-04T06:32:49.323Z,99.99
2017-06-04T06:33:30.206Z,99.99
2017-06-04T06:34:11.107Z,99.99
2017-06-04T06:34:52.000Z,99.99
2017-06-04T06:35:32.900Z,99.99
2017-06-04T06:36:13.798Z,99.99
2017-06-04T06:36:54.687Z,99.99
2017-06-04T06:37:35.580Z,99.99
2017-06-04T06:38:16.477Z,99.99
2017-06-04T06:38:57.362Z,99.99
2017-06-04T06:39:38.271Z,99.99
2017-06-04T06:40:19.161Z,99.99
2017-06-04T06:41:00.055Z,99.99
2017-06-04T06:41:40.950Z,99.99
2017-06-04T06:42:21.847Z,99.99
2017-06-04T06:43:02.746Z,99.99
2017-06-04T06:43:43.665Z,99.99
2017-06-04T06:44:24.545Z,99.99
2017-06-04T06:45:05.440Z,99.99
2017-06-04T06:45:46.333Z,99.99
2017-06-04T06:46:27.248Z,99.99
2017-06-04T06:47:08.145Z,99.99
2017-06-04T06:47:49.045Z,99.99
2017-06-04T06:48:29.951Z,99.99
2017-06-04T06:49:10.847Z,99.99
2017-06-04T06:49:51.736Z,99.99
2017-06-04T06:50:32.631Z,99.99
2017-06-04T06:51:13.526Z,99.99
2017-06-04T06:51:54.426Z,99.99
2017-06-04T06:52:35.315Z,99.99
2017-06-04T06:53:16.196Z,99.99
2017-06-04T06:53:57.113Z,99.99
2017-06-04T06:54:37.981Z,99.99
2017-06-04T06:55:18.875Z,99.99
2017-06-04T06:55:59.804Z,99.99
2017-06-04T06:56:40.701Z,99.99
2017-06-04T06:57:21.603Z,99.99
2017-06-04T06:58:02.485Z,99.99
2017-06-04T06:58:43.370Z,99.99
2017-06-04T06:59:24.261Z,99.99
2017-06-04T07:00:05.150Z,99.99
2017-06-04T07:00:46.044Z,99.99
2017-06-04T07:01:26.948Z,99.99
2017-06-04T07:02:07.841Z,99.99
2017-06-04T07:02:48.739Z,99.99
2017-06-04T07:03:29.639Z,99.99
2017-06-04T07:04:10.559Z,99.99
2017-06-04T07:04:51.446Z,99.99
2017-06-04T07:05:32.338Z,99.99
2017-06-04T07:06:13.282Z,99.99
2017-06-04T07:06:54.181Z,99.99
2017-06-04T07:07:35.082Z,99.99
2017-06-04T07:08:15.957Z,99.99
2017-06-04T07:08:56.856Z,99.99
2017-06-04T07:09:37.759Z,99.99
2017-06-04T07:10:18.650Z,99.99
2017-06-04T07:10:59.558Z,99.99
2017-06-04T07:11:40.450Z,99.99
2017-06-04T07:12:21.348Z,99.99
2017-06-04T07:13:02.239Z,99.99
2017-06-04T07:13:43.137Z,99.99
2017-06-04T07:14:24.038Z,99.99
2017-06-04T07:15:04.929Z,99.99
2017-06-04T07:15:45.818Z,99.99
2017-06-04T07:16:26.717Z,99.99
2017-06-04T07:17:07.612Z,99.99
2017-06-04T07:17:48.512Z,99.99
2017-06-04T07:18:29.416Z,99.99
2017-06-04T07:19:10.315Z,99.99
2017-06-04T07:19:51.204Z,99.99
2017-06-04T07:20:32.109Z,99.99
2017-06-04T07:21:13.011Z,99.99
2017-06-04T07:21:53.920Z,99.99
2017-06-04T07:22:34.807Z,99.99
2017-06-04T07:23:15.700Z,99.99
2017-06-04T07:23:56.596Z,99.99
2017-06-04T07:24:37.480Z,99.99
2017-06-04T07:25:18.387Z,99.99
2017-06-04T07:25:59.299Z,99.99
2017-06-04T07:26:40.207Z,99.99
2017-06-04T07:27:21.098Z,99.99
2017-06-04T07:28:01.987Z,99.99
2017-06-04T07:28:42.886Z,99.99
2017-06-04T07:29:23.778Z,99.99
2017-06-04T07:30:04.668Z,99.99
2017-06-04T07:30:45.561Z,99.99
2017-06-04T07:31:26.466Z,99.99
2017-06-04T07:32:07.361Z,99.99
2017-06-04T07:32:48.258Z,99.99
2017-06-04T07:33:29.139Z,99.99
2017-06-04T07:34:10.048Z,99.99
2017-06-04T07:34:50.941Z,99.99
2017-06-04T07:35:31.810Z,99.99
2017-06-04T07:36:12.725Z,99.99
2017-06-04T07:36:53.620Z,99.99
2017-06-04T07:37:34.516Z,99.99
2017-06-04T07:38:15.401Z,99.99
2017-06-04T07:38:56.297Z,99.99
2017-06-04T07:39:37.173Z,99.99
2017-06-04T07:40:18.071Z,99.99
2017-06-04T07:40:58.958Z,99.99
2017-06-04T07:41:39.831Z,99.99
2017-06-04T07:42:20.731Z,99.99
2017-06-04T07:43:01.622Z,99.99
2017-06-04T07:43:42.502Z,99.99
2017-06-04T07:44:23.382Z,99.99
2017-06-04T07:45:04.279Z,99.99
2017-06-04T07:45:45.162Z,99.99
2017-06-04T07:46:26.098Z,99.99
2017-06-04T07:47:06.985Z,99.99
2017-06-04T07:47:47.871Z,99.99
2017-06-04T07:48:28.764Z,99.99
2017-06-04T07:49:09.654Z,99.99
2017-06-04T07:49:50.541Z,99.99
2017-06-04T07:50:31.407Z,99.99
2017-06-04T07:51:12.300Z,99.99
2017-06-04T07:51:53.181Z,99.99
2017-06-04T07:52:34.073Z,99.99
2017-06-04T07:53:14.962Z,99.99
2017-06-04T07:53:55.862Z,99.99
2017-06-04T07:54:36.752Z,99.99
2017-06-04T07:55:17.637Z,99.99
2017-06-04T07:55:58.527Z,99.99
2017-06-04T07:56:39.414Z,99.99
2017-06-04T07:57:20.293Z,99.99
2017-06-04T07:58:01.198Z,99.99
2017-06-04T07:58:42.093Z,99.99
2017-06-04T07:59:22.984Z,99.99
2017-06-04T08:00:03.875Z,99.99
2017-06-04T08:00:44.765Z,99.99
2017-06-04T08:01:25.667Z,99.99
2017-06-04T08:02:06.574Z,99.99
2017-06-04T08:02:47.457Z,99.99
2017-06-04T08:03:28.356Z,99.99
2017-06-04T08:04:09.253Z,99.99
2017-06-04T08:04:50.145Z,99.99
2017-06-04T08:05:31.038Z,99.99
2017-06-04T08:06:11.938Z,99.99
2017-06-04T08:06:52.825Z,99.99
2017-06-04T08:07:33.789Z,99.99
2017-06-04T08:08:14.679Z,99.99
2017-06-04T08:08:55.562Z,99.99
2017-06-04T08:09:36.437Z,99.99
2017-06-04T08:10:17.339Z,99.99
2017-06-04T08:10:58.235Z,99.99
2017-06-04T08:11:39.124Z,99.99
2017-06-04T08:12:20.035Z,99.99
2017-06-04T08:13:00.917Z,99.99
2017-06-04T08:13:41.809Z,99.99
2017-06-04T08:14:22.683Z,99.99
2017-06-04T08:15:03.567Z,99.99
2017-06-04T08:15:44.446Z,99.99
2017-06-04T08:16:25.319Z,99.99
2017-06-04T08:17:06.238Z,99.99
2017-06-04T08:17:47.113Z,99.99
2017-06-04T08:18:28.003Z,99.99
2017-06-04T08:19:08.910Z,99.99
2017-06-04T08:19:49.806Z,99.99
2017-06-04T08:20:30.701Z,99.99
2017-06-04T08:21:11.587Z,99.99
2017-06-04T08:21:52.485Z,99.99
2017-06-04T08:22:33.354Z,99.99
2017-06-04T08:23:14.247Z,99.99
2017-06-04T08:23:55.134Z,99.99
2017-06-04T08:24:36.025Z,99.99
2017-06-04T08:25:16.904Z,99.99
2017-06-04T08:25:57.786Z,99.99
2017-06-04T08:26:38.676Z,99.99
2017-06-04T08:27:19.542Z,99.99
2017-06-04T08:28:00.449Z,99.99
2017-06-04T08:28:41.354Z,99.99
2017-06-04T08:30:40.107Z,99.99
2017-06-04T08:31:20.985Z,99.99
2017-06-04T08:32:01.861Z,99.99
2017-06-04T08:32:42.735Z,99.99
2017-06-04T08:33:23.626Z,99.99
2017-06-04T08:34:04.504Z,99.99
2017-06-04T08:34:45.391Z,99.99
2017-06-04T08:35:26.270Z,99.99
2017-06-04T08:36:07.157Z,99.99
2017-06-04T08:36:48.055Z,99.99
2017-06-04T08:37:28.934Z,99.99
2017-06-04T08:38:09.831Z,99.99
2017-06-04T08:38:50.719Z,99.99
2017-06-04T08:39:31.614Z,99.99
2017-06-04T08:40:12.504Z,99.99
2017-06-04T08:40:53.404Z,99.99
2017-06-04T08:41:34.289Z,99.99
2017-06-04T08:42:15.181Z,99.99
2017-06-04T08:42:56.073Z,99.99
2017-06-04T08:43:36.951Z,99.99
2017-06-04T08:44:17.835Z,99.99
2017-06-04T08:44:58.724Z,99.99
2017-06-04T08:45:39.615Z,99.99
2017-06-04T08:46:20.536Z,99.99
2017-06-04T08:47:01.427Z,99.99
2017-06-04T08:47:42.304Z,99.99
2017-06-04T08:48:23.182Z,99.99
2017-06-04T08:49:04.063Z,99.99
2017-06-04T08:49:44.974Z,99.99
2017-06-04T08:50:25.855Z,99.99